createdAt,value
2023-04-10T00:00:57.321Z,45.00
2023-04-10T00:05:01.050Z,45.00
2023-04-10T00:09:03.661Z,45.10
2023-04-10T00:13:06.391Z,45.10
2023-04-10T00:17:09.298Z,45.10
2023-04-10T00:21:12.148Z,45.20
2023-04-10T00:25:14.876Z,45.20
2023-04-10T00:29:17.425Z,45.20
2023-04-10T00:33:20.068Z,45.20
2023-04-10T00:37:22.789Z,45.30
2023-04-10T00:41:25.612Z,45.30
2023-04-10T00:45:28.257Z,45.20
2023-04-10T00:49:31.811Z,45.20
2023-04-10T00:53:34.361Z,45.30
2023-04-10T00:57:37.777Z,45.30
2023-04-10T01:01:40.853Z,45.30
2023-04-10T01:05:47.707Z,45.40
2023-04-10T01:09:59.877Z,45.40
2023-04-10T01:14:10.801Z,45.40
2023-04-10T01:18:22.975Z,45.50
2023-04-10T01:22:28.590Z,45.50
2023-04-10T01:26:51.396Z,45.50
2023-04-10T01:30:57.567Z,45.60
2023-04-10T01:35:04.691Z,45.60
2023-04-10T01:39:08.603Z,45.60
2023-04-10T01:43:11.897Z,45.60
2023-04-10T01:47:22.246Z,45.70
2023-04-10T01:51:26.440Z,45.70
2023-04-10T01:55:29.608Z,45.80
2023-04-10T01:59:40.340Z,45.80
2023-04-10T02:03:43.894Z,45.90
2023-04-10T02:07:55.205Z,46.00
2023-04-10T02:12:01.523Z,46.10
2023-04-10T02:16:06.638Z,46.20
2023-04-10T02:20:10.847Z,46.40
2023-04-10T02:24:13.614Z,46.80
2023-04-10T02:28:16.453Z,47.00
2023-04-10T02:32:19.220Z,47.40
2023-04-10T02:36:22.767Z,47.90
2023-04-10T02:40:27.077Z,48.40
2023-04-10T02:44:58.709Z,48.70
2023-04-10T02:49:01.911Z,49.00
2023-04-10T02:53:05.444Z,49.10
2023-04-10T02:57:08.465Z,48.80
2023-04-10T03:01:11.592Z,48.60
2023-04-10T03:05:17.034Z,48.40
2023-04-10T03:09:20.167Z,48.30
2023-04-10T03:13:23.675Z,48.20
2023-04-10T03:17:26.198Z,48.10
2023-04-10T03:21:30.154Z,48.10
2023-04-10T03:25:36.612Z,48.00
2023-04-10T03:29:42.467Z,48.00
2023-04-10T03:33:46.421Z,48.10
2023-04-10T03:37:49.141Z,48.10
2023-04-10T03:41:51.715Z,48.10
2023-04-10T03:45:55.033Z,48.10
2023-04-10T03:49:59.591Z,48.20
2023-04-10T03:54:03.728Z,48.40
2023-04-10T03:58:06.369Z,48.40
2023-04-10T04:02:09.455Z,48.50
2023-04-10T04:06:12.226Z,48.60
2023-04-10T04:10:29.341Z,48.70
2023-04-10T04:14:49.586Z,48.90
2023-04-10T04:19:01.178Z,49.00
2023-04-10T04:23:14.575Z,49.30
2023-04-10T04:27:35.712Z,49.40
2023-04-10T04:31:52.598Z,49.60
2023-04-10T04:36:21.082Z,50.30
2023-04-10T04:40:43.352Z,50.60
2023-04-10T04:44:57.639Z,50.80
2023-04-10T04:49:19.228Z,50.80
2023-04-10T04:53:44.581Z,51.10
2023-04-10T04:58:02.098Z,51.50
2023-04-10T05:02:37.244Z,51.70
2023-04-10T05:06:58.278Z,51.90
2023-04-10T05:11:19.296Z,51.90
2023-04-10T05:15:28.654Z,52.20
2023-04-10T05:25:19.899Z,53.60
2023-04-10T05:30:09.733Z,53.30
2023-04-10T05:34:39.803Z,53.50
2023-04-10T05:38:46.380Z,53.70
2023-04-10T05:43:15.250Z,53.60
2023-04-10T05:47:36.755Z,53.40
2023-04-10T05:52:04.272Z,53.20
2023-04-10T05:56:42.528Z,52.80
2023-04-10T06:01:04.030Z,52.40
2023-04-10T06:05:24.988Z,52.00
2023-04-10T06:09:34.281Z,51.70
2023-04-10T06:13:36.762Z,51.40
2023-04-10T06:17:43.735Z,50.90
2023-04-10T06:21:47.833Z,50.50
2023-04-10T06:25:50.439Z,50.20
2023-04-10T06:29:54.147Z,50.00
2023-04-10T06:33:58.795Z,49.70
2023-04-10T06:38:02.259Z,49.40
2023-04-10T06:42:07.841Z,49.20
2023-04-10T06:46:31.403Z,49.10
2023-04-10T06:50:33.983Z,48.70
2023-04-10T06:54:36.629Z,48.40
2023-04-10T06:58:39.331Z,48.20
2023-04-10T07:02:41.775Z,48.00
2023-04-10T07:06:44.229Z,47.70
2023-04-10T07:10:46.829Z,47.20
2023-04-10T07:14:49.387Z,46.70
2023-04-10T07:18:52.192Z,46.00
2023-04-10T07:22:54.894Z,45.90
2023-04-10T07:26:58.155Z,45.50
2023-04-10T07:31:00.947Z,45.70
2023-04-10T07:35:05.175Z,45.10
2023-04-10T07:39:07.753Z,44.90
2023-04-10T07:43:10.355Z,45.00
2023-04-10T07:47:13.086Z,43.40
2023-04-10T07:51:16.077Z,43.90
2023-04-10T07:55:18.804Z,43.90
2023-04-10T07:59:21.243Z,43.60
2023-04-10T08:03:23.876Z,42.50
2023-04-10T08:07:26.494Z,41.20
2023-04-10T08:11:30.267Z,40.50
2023-04-10T08:15:32.896Z,40.30
2023-04-10T08:19:36.342Z,40.10
2023-04-10T08:23:38.961Z,40.00
2023-04-10T08:27:41.439Z,40.40
2023-04-10T08:31:44.007Z,38.60
2023-04-10T08:35:49.705Z,37.90
2023-04-10T08:39:52.589Z,38.10
2023-04-10T08:43:57.010Z,37.70
2023-04-10T08:48:02.553Z,37.50
2023-04-10T08:52:07.314Z,36.80
2023-04-10T08:56:12.169Z,36.90
2023-04-10T09:00:23.043Z,37.40
2023-04-10T09:04:26.721Z,37.70
2023-04-10T09:08:29.863Z,38.00
2023-04-10T09:12:43.013Z,37.70
2023-04-10T09:16:45.975Z,37.70
2023-04-10T09:20:51.551Z,37.70
2023-04-10T09:24:54.190Z,37.90
2023-04-10T09:29:03.968Z,37.80
2023-04-10T09:33:27.819Z,37.70
2023-04-10T09:37:33.841Z,36.90
2023-04-10T09:41:47.636Z,36.70
2023-04-10T09:45:54.659Z,36.40
2023-04-10T09:49:59.223Z,36.20
2023-04-10T09:54:02.835Z,36.30
2023-04-10T09:58:06.189Z,36.20
2023-04-10T10:02:09.415Z,36.30
2023-04-10T10:06:12.182Z,35.70
2023-04-10T10:10:14.752Z,35.60
2023-04-10T10:14:18.754Z,34.60
2023-04-10T10:18:41.700Z,35.30
2023-04-10T10:22:45.338Z,35.00
2023-04-10T10:26:48.027Z,35.30
2023-04-10T10:30:51.558Z,34.90
2023-04-10T10:34:54.257Z,34.90
2023-04-10T10:39:05.967Z,35.10
2023-04-10T10:43:17.569Z,35.40
2023-04-10T10:47:23.365Z,35.70
2023-04-10T10:52:01.810Z,35.50
2023-04-10T10:56:19.688Z,35.40
2023-04-10T11:00:23.072Z,35.50
2023-04-10T11:04:47.537Z,35.30
2023-04-10T11:08:53.123Z,35.20
2023-04-10T11:13:14.742Z,34.70
2023-04-10T11:17:37.246Z,34.50
2023-04-10T11:21:58.843Z,34.50
2023-04-10T11:26:01.998Z,34.60
2023-04-10T11:30:04.779Z,34.70
2023-04-10T11:34:08.145Z,34.30
2023-04-10T11:38:11.585Z,34.40
2023-04-10T11:42:20.577Z,34.10
2023-04-10T11:46:23.319Z,33.90
2023-04-10T11:50:29.727Z,34.30
2023-04-10T11:54:32.852Z,34.30
2023-04-10T11:58:35.639Z,34.20
2023-04-10T12:03:04.839Z,34.40
2023-04-10T12:07:07.558Z,33.90
2023-04-10T12:11:10.376Z,33.40
2023-04-10T12:15:26.102Z,33.20
2023-04-10T12:19:28.975Z,33.10
2023-04-10T12:23:31.697Z,33.30
2023-04-10T12:27:34.151Z,33.30
2023-04-10T12:31:37.326Z,33.20
2023-04-10T12:35:40.508Z,33.20
2023-04-10T12:39:43.125Z,32.60
2023-04-10T12:43:45.750Z,31.90
2023-04-10T12:47:49.689Z,32.20
2023-04-10T12:51:52.566Z,32.30
2023-04-10T12:56:00.878Z,32.40
2023-04-10T13:00:03.897Z,32.50
2023-04-10T13:04:06.801Z,31.90
2023-04-10T13:08:09.565Z,32.30
2023-04-10T13:12:12.665Z,32.40
2023-04-10T13:16:15.731Z,32.40
2023-04-10T13:20:18.438Z,32.20
2023-04-10T13:24:21.064Z,32.30
2023-04-10T13:28:23.665Z,31.70
2023-04-10T13:32:26.280Z,31.70
2023-04-10T13:36:29.009Z,31.80
2023-04-10T13:40:31.775Z,32.10
2023-04-10T13:44:34.365Z,32.00
2023-04-10T13:48:41.294Z,31.50
2023-04-10T13:52:43.949Z,31.50
2023-04-10T13:56:46.904Z,31.60
2023-04-10T14:00:49.600Z,31.60
2023-04-10T14:04:52.083Z,31.50
2023-04-10T14:08:54.890Z,31.70
2023-04-10T14:12:57.500Z,31.80
2023-04-10T14:17:00.070Z,31.80
2023-04-10T14:21:02.697Z,32.00
2023-04-10T14:25:12.506Z,32.00
2023-04-10T14:29:20.110Z,32.10
2023-04-10T14:33:25.531Z,31.90
2023-04-10T14:37:28.167Z,31.90
2023-04-10T14:41:31.212Z,31.80
2023-04-10T14:45:34.058Z,31.80
2023-04-10T14:49:36.711Z,32.10
2023-04-10T14:53:39.690Z,31.60
2023-04-10T14:57:42.149Z,31.60
2023-04-10T15:01:45.122Z,31.60
2023-04-10T15:05:47.868Z,31.40
2023-04-10T15:09:50.625Z,31.40
2023-04-10T15:13:53.517Z,31.60
2023-04-10T15:17:56.257Z,31.80
2023-04-10T15:21:58.923Z,31.80
2023-04-10T15:26:01.407Z,31.90
2023-04-10T15:30:07.362Z,31.60
2023-04-10T15:34:09.840Z,31.70
2023-04-10T15:38:12.774Z,31.50
2023-04-10T15:42:15.963Z,31.40
2023-04-10T15:46:19.189Z,31.40
2023-04-10T15:50:21.761Z,31.40
2023-04-10T15:54:24.189Z,31.40
2023-04-10T15:58:27.678Z,31.70
2023-04-10T16:02:32.460Z,31.30
2023-04-10T16:06:35.391Z,30.80
2023-04-10T16:10:37.959Z,31.30
2023-04-10T16:14:40.561Z,31.50
2023-04-10T16:18:44.944Z,31.20
2023-04-10T16:22:47.567Z,31.20
2023-04-10T16:26:50.235Z,31.40
2023-04-10T16:30:52.793Z,31.30
2023-04-10T16:34:55.399Z,31.30
2023-04-10T16:38:58.114Z,30.90
2023-04-10T16:43:01.939Z,31.10
2023-04-10T16:47:04.798Z,31.30
2023-04-10T16:51:08.619Z,31.30
2023-04-10T16:55:11.160Z,31.00
2023-04-10T16:59:13.738Z,31.10
2023-04-10T17:03:16.334Z,30.70
2023-04-10T17:07:19.236Z,30.30
2023-04-10T17:11:21.826Z,30.30
2023-04-10T17:15:24.333Z,31.00
2023-04-10T17:19:27.021Z,31.30
2023-04-10T17:23:29.707Z,31.70
2023-04-10T17:27:32.298Z,32.00
2023-04-10T17:31:34.977Z,32.30
2023-04-10T17:35:37.584Z,32.60
2023-04-10T17:39:40.104Z,32.90
2023-04-10T17:43:42.756Z,33.20
2023-04-10T17:47:45.396Z,33.40
2023-04-10T17:51:48.057Z,33.60
2023-04-10T17:55:50.640Z,33.90
2023-04-10T17:59:53.341Z,34.10
2023-04-10T18:03:56.286Z,34.30
2023-04-10T18:07:58.913Z,34.50
2023-04-10T18:12:01.582Z,34.80
2023-04-10T18:16:04.248Z,34.90
2023-04-10T18:20:07.494Z,35.20
2023-04-10T18:24:11.131Z,35.40
2023-04-10T18:28:15.572Z,35.60
2023-04-10T18:32:19.588Z,35.80
2023-04-10T18:36:24.147Z,35.90
2023-04-10T18:40:26.789Z,36.00
2023-04-10T18:44:30.588Z,36.10
2023-04-10T18:48:34.252Z,36.20
2023-04-10T18:52:37.176Z,36.20
2023-04-10T18:56:39.720Z,36.20
2023-04-10T19:00:42.597Z,36.30
2023-04-10T19:04:45.332Z,36.30
2023-04-10T19:08:51.130Z,36.40
2023-04-10T19:12:56.312Z,36.40
2023-04-10T19:16:58.928Z,36.50
2023-04-10T19:21:02.680Z,36.50
2023-04-10T19:25:05.391Z,36.60
2023-04-10T19:29:09.096Z,36.70
2023-04-10T19:33:11.737Z,36.80
2023-04-10T19:37:14.429Z,37.20
2023-04-10T19:41:17.467Z,37.40
2023-04-10T19:49:25.852Z,38.50
2023-04-10T19:53:29.727Z,39.10
2023-04-10T19:57:32.244Z,39.40
2023-04-10T20:01:34.961Z,39.30
2023-04-10T20:05:37.557Z,39.30
2023-04-10T20:09:40.267Z,39.30
2023-04-10T20:13:42.772Z,39.20
2023-04-10T20:17:45.580Z,39.00
2023-04-10T20:21:48.501Z,38.80
2023-04-10T20:25:50.978Z,38.60
2023-04-10T20:29:53.499Z,38.40
2023-04-10T20:33:56.094Z,38.40
2023-04-10T20:37:58.866Z,38.70
2023-04-10T20:42:01.512Z,39.20
2023-04-10T20:46:04.643Z,40.00
2023-04-10T20:50:07.736Z,39.90
2023-04-10T20:54:10.307Z,40.30
2023-04-10T20:58:15.769Z,40.80
2023-04-10T21:02:18.553Z,41.20
2023-04-10T21:06:21.396Z,41.40
2023-04-10T21:10:24.118Z,42.10
2023-04-10T21:14:26.941Z,42.60
2023-04-10T21:18:29.531Z,42.70
2023-04-10T21:22:32.135Z,43.30
2023-04-10T21:26:34.810Z,43.90
2023-04-10T21:30:37.373Z,44.60
2023-04-10T21:34:39.938Z,44.80
2023-04-10T21:38:42.797Z,45.10
2023-04-10T21:42:45.562Z,45.10
2023-04-10T21:46:48.119Z,44.70
2023-04-10T21:50:51.402Z,44.80
2023-04-10T21:54:54.081Z,44.60
2023-04-10T21:58:56.682Z,44.40
2023-04-10T22:02:59.521Z,44.30
2023-04-10T22:07:03.651Z,44.90
2023-04-10T22:11:08.014Z,46.00
2023-04-10T22:15:10.870Z,46.50
2023-04-10T22:19:13.387Z,46.90
2023-04-10T22:23:16.230Z,47.10
2023-04-10T22:27:18.786Z,47.20
2023-04-10T22:31:21.582Z,46.80
2023-04-10T22:35:24.311Z,46.90
2023-04-10T22:39:26.903Z,46.70
2023-04-10T22:43:29.472Z,46.80
2023-04-10T22:47:32.118Z,47.00
2023-04-10T22:51:34.698Z,46.90
2023-04-10T22:55:37.866Z,47.10
2023-04-10T22:59:40.507Z,47.40
2023-04-10T23:03:43.218Z,48.00
2023-04-10T23:07:45.840Z,48.60
2023-04-10T23:11:48.374Z,48.80
2023-04-10T23:15:51.982Z,48.80
2023-04-10T23:19:54.599Z,48.70
2023-04-10T23:23:57.210Z,48.80
2023-04-10T23:28:00.042Z,48.60
2023-04-10T23:32:02.601Z,48.30
2023-04-10T23:36:05.726Z,48.90
2023-04-10T23:40:08.523Z,49.10
2023-04-10T23:44:11.030Z,48.70
2023-04-10T23:48:13.870Z,49.10
2023-04-10T23:52:16.406Z,49.50
2023-04-10T23:56:20.900Z,49.90
